Time;durP1;ratioP1;P1;durP2;ratioP2;P2;SDS_P1;SDS_P2;PMS_P1;PMS_P2;Temp;Humidity;BMP_temperature;BMP_pressure;BME280_temperature;BME280_humidity;BME280_pressure;Samples;Min_cycle;Max_cycle;Signal;HPM_P1;HPM_P2
2021/07/14 00:00:08;;;;;;;18.80;12.73;;;21.90;99.90;;;;;;4408302;28;659849;-71
2021/07/14 00:03:00;;;;;;;18.87;12.67;;;22.00;99.90;;;;;;4407940;28;659256;-71
2021/07/14 00:05:49;;;;;;;23.00;13.07;;;22.00;99.90;;;;;;4425280;28;659000;-71
2021/07/14 00:08:37;;;;;;;22.23;13.00;;;22.00;99.90;;;;;;4424417;28;659685;-71
2021/07/14 00:11:28;;;;;;;18.27;12.90;;;22.00;99.90;;;;;;4427028;28;659090;-71
2021/07/14 00:14:28;;;;;;;19.70;13.17;;;21.90;99.90;;;;;;4408682;28;659658;-71
2021/07/14 00:17:23;;;;;;;20.43;12.73;;;21.90;99.90;;;;;;4421873;28;658628;-70
2021/07/14 00:23:22;;;;;;;18.23;13.00;;;21.90;99.90;;;;;;4416476;28;659274;-71
2021/07/14 00:26:09;;;;;;;19.40;13.10;;;21.90;99.90;;;;;;4428987;28;659056;-71
2021/07/14 00:28:58;;;;;;;20.53;12.73;;;22.00;99.90;;;;;;4443030;28;659428;-71
2021/07/14 00:31:47;;;;;;;20.13;13.47;;;22.00;99.90;;;;;;4425147;28;658634;-71
2021/07/14 00:34:36;;;;;;;19.73;12.93;;;22.00;99.90;;;;;;4428255;28;658919;-71
2021/07/14 00:37:27;;;;;;;19.87;12.80;;;22.10;99.90;;;;;;4433519;28;658763;-72
2021/07/14 00:40:17;;;;;;;22.77;12.80;;;22.00;99.90;;;;;;4425593;28;658857;-72
2021/07/14 00:43:06;;;;;;;19.40;12.07;;;22.10;99.90;;;;;;4425999;28;659095;-71
2021/07/14 00:45:55;;;;;;;19.37;12.77;;;22.10;99.90;;;;;;4430359;28;658831;-72
2021/07/14 00:48:44;;;;;;;23.20;12.77;;;22.00;99.90;;;;;;4446332;28;658321;-71
2021/07/14 00:51:33;;;;;;;21.50;12.13;;;21.90;99.90;;;;;;4406768;28;658658;-71
2021/07/14 00:54:25;;;;;;;18.13;12.03;;;22.00;99.90;;;;;;4407001;28;659352;-71
2021/07/14 00:57:16;;;;;;;24.20;12.00;;;21.90;99.90;;;;;;4407825;28;659722;-71
2021/07/14 01:00:06;;;;;;;22.50;12.63;;;21.90;99.90;;;;;;4407819;28;658987;-71
2021/07/14 01:02:54;;;;;;;20.47;13.20;;;21.90;99.90;;;;;;4427469;28;658103;-71
2021/07/14 01:05:45;;;;;;;18.80;12.40;;;21.90;99.90;;;;;;4419069;28;659596;-71
2021/07/14 01:08:39;;;;;;;21.87;11.87;;;21.90;99.90;;;;;;4424935;28;658897;-71
2021/07/14 01:11:31;;;;;;;17.53;11.93;;;21.90;99.90;;;;;;4411282;28;659850;-71
2021/07/14 01:14:23;;;;;;;23.23;12.93;;;21.90;99.90;;;;;;4426345;28;659189;-72
2021/07/14 01:17:13;;;;;;;25.50;12.57;;;21.80;99.90;;;;;;4422955;28;659679;-71
2021/07/14 01:20:30;;;;;;;25.90;13.23;;;21.80;99.90;;;;;;4438786;28;660421;-71
2021/07/14 01:23:24;;;;;;;25.33;12.40;;;21.70;99.90;;;;;;4438689;28;658921;-70
2021/07/14 01:26:31;;;;;;;19.97;12.00;;;21.60;99.90;;;;;;4415077;28;659151;-71
2021/07/14 01:29:22;;;;;;;20.13;12.47;;;21.60;99.90;;;;;;4424355;28;659058;-72
2021/07/14 01:32:11;;;;;;;19.77;12.80;;;21.50;99.90;;;;;;4431382;28;658495;-72
2021/07/14 01:35:02;;;;;;;18.30;12.30;;;21.50;99.90;;;;;;4444819;28;660062;-72
2021/07/14 01:37:51;;;;;;;25.73;12.40;;;21.50;99.90;;;;;;4422470;28;658695;-71
2021/07/14 01:40:41;;;;;;;18.60;12.53;;;21.60;99.90;;;;;;4434247;28;658225;-72
2021/07/14 01:43:32;;;;;;;20.97;12.33;;;21.60;99.90;;;;;;4437602;28;658845;-72
2021/07/14 01:46:23;;;;;;;19.57;12.27;;;21.60;99.90;;;;;;4434710;28;658998;-71
2021/07/14 01:49:14;;;;;;;17.57;12.13;;;21.60;99.90;;;;;;4440383;28;659307;-71
2021/07/14 01:52:04;;;;;;;17.07;12.13;;;21.60;99.90;;;;;;4431696;28;659147;-71
2021/07/14 01:54:54;;;;;;;21.27;12.23;;;21.60;99.90;;;;;;4427676;28;659960;-71
2021/07/14 01:57:43;;;;;;;21.87;12.63;;;21.60;99.90;;;;;;4426275;28;660195;-71
2021/07/14 02:00:33;;;;;;;19.70;12.20;;;21.50;99.90;;;;;;4428854;28;660533;-72
2021/07/14 02:03:41;;;;;;;18.57;11.97;;;21.50;99.90;;;;;;4426048;28;658512;-72
2021/07/14 02:06:30;;;;;;;20.50;12.90;;;21.50;99.90;;;;;;4440468;28;659267;-72
2021/07/14 02:09:19;;;;;;;19.20;11.87;;;21.50;99.90;;;;;;4450228;28;658610;-71
2021/07/14 02:12:10;;;;;;;18.87;12.50;;;21.50;99.90;;;;;;4427267;28;659685;-71
2021/07/14 02:15:01;;;;;;;22.10;13.00;;;21.40;99.90;;;;;;4427397;28;658590;-71
2021/07/14 02:17:52;;;;;;;20.30;12.33;;;21.30;99.90;;;;;;4427588;28;659098;-72
2021/07/14 02:20:46;;;;;;;22.67;12.77;;;21.20;99.90;;;;;;4402001;28;659329;-72
2021/07/14 02:23:36;;;;;;;20.73;12.73;;;21.20;99.90;;;;;;4386548;28;658766;-72
2021/07/14 02:26:27;;;;;;;23.53;12.30;;;21.10;99.90;;;;;;4439424;28;659484;-72
2021/07/14 02:29:19;;;;;;;21.00;12.57;;;21.10;99.90;;;;;;4444219;28;658392;-71
2021/07/14 02:32:08;;;;;;;22.40;12.87;;;21.00;99.90;;;;;;4437543;28;659782;-71
2021/07/14 02:34:58;;;;;;;23.58;13.23;;;21.00;99.90;;;;;;4443646;28;659496;-71
2021/07/14 02:37:57;;;;;;;17.37;13.23;;;21.00;99.90;;;;;;4440410;28;659587;-71
2021/07/14 02:40:50;;;;;;;19.55;12.88;;;21.00;99.90;;;;;;4435566;28;660492;-72
2021/07/14 02:43:40;;;;;;;22.60;12.90;;;20.90;99.90;;;;;;4437777;28;659425;-71
2021/07/14 02:46:30;;;;;;;23.40;12.57;;;20.90;99.90;;;;;;4439169;28;659547;-71
2021/07/14 02:49:45;;;;;;;20.10;13.67;;;20.90;99.90;;;;;;4440036;28;658574;-71
2021/07/14 02:52:34;;;;;;;18.77;13.30;;;20.80;99.90;;;;;;4439470;28;658748;-71
2021/07/14 02:55:24;;;;;;;22.50;14.40;;;20.80;99.90;;;;;;4440701;28;659783;-71
2021/07/14 02:58:12;;;;;;;24.53;12.80;;;20.90;99.90;;;;;;4440409;28;658815;-72
2021/07/14 03:01:00;;;;;;;17.47;12.50;;;20.90;99.90;;;;;;4444311;28;658810;-72
2021/07/14 03:03:49;;;;;;;19.57;13.70;;;20.90;99.90;;;;;;4466714;28;658463;-71
2021/07/14 03:06:38;;;;;;;23.40;13.30;;;21.00;99.90;;;;;;4436184;28;659876;-71
2021/07/14 03:09:32;;;;;;;24.30;13.70;;;21.00;99.90;;;;;;4438085;28;658574;-72
2021/07/14 03:12:22;;;;;;;22.43;13.20;;;21.10;99.90;;;;;;4416804;28;658928;-71
2021/07/14 03:15:11;;;;;;;19.40;13.10;;;21.20;99.90;;;;;;4437288;28;659075;-71
2021/07/14 03:17:58;;;;;;;18.87;13.07;;;21.30;99.90;;;;;;4468800;28;658412;-71
2021/07/14 03:20:46;;;;;;;18.83;13.23;;;21.40;99.90;;;;;;4446710;28;659009;-71
2021/07/14 03:23:34;;;;;;;20.13;12.93;;;21.50;99.90;;;;;;4446924;28;658974;-72
2021/07/14 03:26:22;;;;;;;19.00;12.80;;;21.50;99.90;;;;;;4465858;28;658860;-71
2021/07/14 03:29:11;;;;;;;19.63;12.50;;;21.60;99.90;;;;;;4445709;28;660582;-72
2021/07/14 03:31:58;;;;;;;20.40;12.93;;;21.70;99.90;;;;;;4467134;28;658417;-71
2021/07/14 03:34:46;;;;;;;25.83;13.53;;;21.80;99.90;;;;;;4443696;28;660435;-71
2021/07/14 03:37:35;;;;;;;21.47;12.60;;;21.90;99.90;;;;;;4465344;28;658212;-72
2021/07/14 03:40:22;;;;;;;19.43;13.13;;;22.00;99.90;;;;;;4465174;28;658764;-71
2021/07/14 03:43:10;;;;;;;22.70;13.57;;;22.00;99.90;;;;;;4446746;28;658704;-71
2021/07/14 03:45:59;;;;;;;22.17;12.67;;;22.20;99.90;;;;;;4466108;28;658417;-71
2021/07/14 03:48:47;;;;;;;26.13;13.30;;;22.20;99.90;;;;;;4443033;28;658710;-71
2021/07/14 03:51:35;;;;;;;17.43;13.30;;;22.30;99.90;;;;;;4445681;28;658952;-71
2021/07/14 03:54:22;;;;;;;23.90;13.57;;;22.30;99.90;;;;;;4469030;28;659783;-71
2021/07/14 03:57:10;;;;;;;19.03;13.07;;;22.40;99.90;;;;;;4438667;28;658467;-72
2021/07/14 03:59:57;;;;;;;19.50;12.73;;;22.50;99.90;;;;;;4468076;28;658814;-71
2021/07/14 04:02:46;;;;;;;20.63;13.53;;;22.60;99.90;;;;;;4443221;28;659167;-72
2021/07/14 04:05:34;;;;;;;22.73;13.87;;;22.70;99.90;;;;;;4448027;28;658519;-72
2021/07/14 04:08:24;;;;;;;23.43;13.23;;;22.70;99.90;;;;;;4458938;28;659841;-71
2021/07/14 04:11:11;;;;;;;21.43;13.87;;;22.80;99.90;;;;;;4442623;28;659592;-71
2021/07/14 04:14:00;;;;;;;22.73;13.10;;;22.90;99.90;;;;;;4442213;28;658590;-72
2021/07/14 04:16:49;;;;;;;19.60;13.00;;;22.90;99.90;;;;;;4464992;28;658574;-71
2021/07/14 04:19:41;;;;;;;17.47;13.53;;;23.00;99.90;;;;;;4431540;28;659509;-70
2021/07/14 04:22:31;;;;;;;21.90;13.50;;;23.10;99.90;;;;;;4432591;28;658865;-72
2021/07/14 04:25:20;;;;;;;17.53;13.13;;;23.20;99.90;;;;;;4460959;28;658639;-71
2021/07/14 04:28:10;;;;;;;20.33;13.27;;;23.30;99.90;;;;;;4441668;28;660052;-71
2021/07/14 04:31:05;;;;;;;19.07;13.07;;;23.30;99.90;;;;;;4432625;28;659274;-70
2021/07/14 04:33:53;;;;;;;19.57;13.37;;;23.40;99.90;;;;;;4434019;28;658707;-70
2021/07/14 04:36:42;;;;;;;24.67;14.10;;;23.50;99.90;;;;;;4443025;28;659070;-71
2021/07/14 04:39:29;;;;;;;22.87;14.87;;;23.60;99.90;;;;;;4445125;28;658831;-71
2021/07/14 04:42:17;;;;;;;22.73;15.10;;;23.70;99.90;;;;;;4467164;28;660142;-71
2021/07/14 04:45:06;;;;;;;18.20;13.83;;;23.80;99.90;;;;;;4445728;28;658381;-72
2021/07/14 04:47:53;;;;;;;26.17;14.15;;;23.90;99.90;;;;;;4462671;28;658517;-70
2021/07/14 04:50:41;;;;;;;19.80;13.30;;;23.90;99.90;;;;;;4440818;28;660032;-71
2021/07/14 04:53:30;;;;;;;20.20;14.00;;;24.00;99.90;;;;;;4468117;28;659203;-71
2021/07/14 04:56:18;;;;;;;18.93;13.47;;;24.20;99.90;;;;;;4434128;28;658309;-71
2021/07/14 04:59:05;;;;;;;21.57;13.60;;;24.30;99.90;;;;;;4443343;28;658825;-71
2021/07/14 05:01:53;;;;;;;18.43;14.33;;;24.40;99.90;;;;;;4463150;28;658853;-71
2021/07/14 05:04:46;;;;;;;18.17;13.67;;;24.50;99.90;;;;;;4444800;28;660035;-71
2021/07/14 05:07:36;;;;;;;24.48;13.88;;;24.60;99.90;;;;;;4440895;28;658474;-71
2021/07/14 05:10:33;;;;;;;22.60;13.95;;;24.70;99.90;;;;;;4425348;28;659259;-72
2021/07/14 05:13:27;;;;;;;23.55;13.70;;;24.90;99.90;;;;;;4417495;28;659101;-72
2021/07/14 05:16:15;;;;;;;26.35;13.63;;;25.00;99.90;;;;;;4444037;28;658352;-71
2021/07/14 05:19:04;;;;;;;18.92;13.00;;;25.10;99.90;;;;;;4462673;28;658606;-71
2021/07/14 05:21:52;;;;;;;20.40;13.30;;;25.20;99.90;;;;;;4439570;28;659276;-72
2021/07/14 05:24:39;;;;;;;19.13;13.15;;;25.30;99.90;;;;;;4438548;28;658946;-72
2021/07/14 05:27:28;;;;;;;18.70;13.63;;;25.40;99.90;;;;;;4463570;28;659881;-72
2021/07/14 05:30:18;;;;;;;17.25;12.50;;;25.60;99.90;;;;;;4443990;28;658850;-72
2021/07/14 05:33:06;;;;;;;19.92;13.70;;;25.70;99.90;;;;;;4440356;28;659523;-71
2021/07/14 05:35:54;;;;;;;22.42;13.27;;;25.80;99.90;;;;;;4463396;28;658971;-71
2021/07/14 05:38:42;;;;;;;19.35;13.57;;;25.90;99.90;;;;;;4440407;28;660022;-71
2021/07/14 05:41:30;;;;;;;16.70;12.35;;;26.00;99.90;;;;;;4444024;28;658482;-71
2021/07/14 05:44:19;;;;;;;18.40;12.20;;;26.20;99.90;;;;;;4466035;28;659704;-71
2021/07/14 05:47:06;;;;;;;20.23;13.05;;;26.20;99.90;;;;;;4442906;28;659512;-71
2021/07/14 05:49:54;;;;;;;15.60;11.82;;;26.40;99.90;;;;;;4439464;28;658438;-72
2021/07/14 05:52:42;;;;;;;20.17;13.60;;;26.50;99.90;;;;;;4459196;28;660427;-71
2021/07/14 05:55:29;;;;;;;20.55;12.57;;;26.60;99.90;;;;;;4438699;28;659302;-71
2021/07/14 05:58:17;;;;;;;22.20;12.98;;;26.60;99.90;;;;;;4452641;28;658447;-70
2021/07/14 06:01:09;;;;;;;22.92;12.15;;;26.70;99.90;;;;;;4442871;28;659020;-71
2021/07/14 06:03:57;;;;;;;19.58;12.73;;;26.80;99.90;;;;;;4433997;28;659666;-71
2021/07/14 06:06:45;;;;;;;20.60;12.82;;;26.90;99.90;;;;;;4443700;28;658765;-71
2021/07/14 06:09:33;;;;;;;17.38;12.15;;;27.00;99.90;;;;;;4463191;28;658836;-70
2021/07/14 06:12:21;;;;;;;16.25;12.65;;;27.20;99.90;;;;;;4427492;28;660109;-70
2021/07/14 06:15:09;;;;;;;26.25;13.25;;;27.20;99.90;;;;;;4462771;28;658736;-70
2021/07/14 06:17:58;;;;;;;17.58;12.20;;;27.20;99.90;;;;;;4436789;28;659720;-71
2021/07/14 06:21:11;;;;;;;17.30;12.20;;;27.30;99.90;;;;;;4423617;28;659372;-69
2021/07/14 06:23:59;;;;;;;20.27;12.40;;;27.30;99.90;;;;;;4422774;28;658635;-69
2021/07/14 06:26:47;;;;;;;23.98;12.10;;;27.30;99.90;;;;;;4467050;28;659720;-70
2021/07/14 06:29:34;;;;;;;22.13;11.98;;;27.50;99.90;;;;;;4440942;28;658393;-69
2021/07/14 06:32:22;;;;;;;17.40;12.25;;;27.70;99.90;;;;;;4458765;28;660177;-72
2021/07/14 06:35:12;;;;;;;19.83;12.63;;;27.90;99.90;;;;;;4439161;28;658934;-70
2021/07/14 06:38:00;;;;;;;17.65;11.75;;;28.00;99.90;;;;;;4455894;28;659465;-70
2021/07/14 06:40:48;;;;;;;22.23;12.43;;;28.10;99.90;;;;;;4463153;28;659189;-69
2021/07/14 06:43:48;;;;;;;21.67;12.25;;;28.20;99.90;;;;;;4440935;28;659903;-69
2021/07/14 06:46:35;;;;;;;15.30;12.10;;;28.20;99.90;;;;;;4409699;28;660751;-69
2021/07/14 06:49:23;;;;;;;17.75;13.05;;;28.20;99.90;;;;;;4461702;28;659159;-69
2021/07/14 06:52:12;;;;;;;25.80;11.83;;;28.40;99.90;;;;;;4419847;28;659469;-69
2021/07/14 06:54:59;;;;;;;15.73;11.32;;;28.40;99.90;;;;;;4428518;28;658759;-68
2021/07/14 06:57:47;;;;;;;18.55;11.88;;;28.60;99.90;;;;;;4466904;28;659442;-69
2021/07/14 07:00:36;;;;;;;21.08;11.95;;;28.90;99.90;;;;;;4448591;28;658925;-68
2021/07/14 07:03:23;;;;;;;27.90;11.45;;;29.10;99.90;;;;;;4460445;28;658434;-69
2021/07/14 07:06:11;;;;;;;23.67;12.10;;;29.30;99.90;;;;;;4442653;28;659186;-69
2021/07/14 07:09:02;;;;;;;19.92;11.73;;;29.50;99.90;;;;;;4446618;28;658790;-69
2021/07/14 07:11:50;;;;;;;20.05;11.38;;;29.60;99.90;;;;;;4447286;28;658702;-69
2021/07/14 07:14:38;;;;;;;15.80;11.10;;;29.60;99.90;;;;;;4465335;28;658701;-69
2021/07/14 07:17:26;;;;;;;19.55;11.63;;;29.60;99.90;;;;;;4447569;28;658934;-69
2021/07/14 07:20:15;;;;;;;23.75;11.75;;;29.80;99.90;;;;;;4456694;28;658773;-68
2021/07/14 07:23:03;;;;;;;21.42;11.75;;;29.90;99.90;;;;;;4466943;28;658534;-69
2021/07/14 07:25:54;;;;;;;20.10;11.40;;;30.00;99.90;;;;;;4440130;28;659518;-69
2021/07/14 07:28:42;;;;;;;29.10;11.55;;;29.90;99.90;;;;;;4436958;28;660282;-69
2021/07/14 07:31:30;;;;;;;15.45;10.65;;;30.00;99.90;;;;;;4448123;28;658904;-69
2021/07/14 07:34:18;;;;;;;22.58;12.30;;;30.00;99.90;;;;;;4466722;28;659830;-70
2021/07/14 07:37:05;;;;;;;20.83;11.63;;;30.10;99.90;;;;;;4429618;28;658511;-69
2021/07/14 07:39:53;;;;;;;18.92;12.23;;;30.20;99.90;;;;;;4452023;28;659034;-69
2021/07/14 07:42:42;;;;;;;17.25;11.55;;;30.30;99.90;;;;;;4440255;28;660378;-69
2021/07/14 07:45:30;;;;;;;16.80;11.82;;;30.40;99.90;;;;;;4446374;28;658998;-69
2021/07/14 07:48:18;;;;;;;21.35;11.38;;;30.40;99.90;;;;;;4465260;28;658535;-70
2021/07/14 07:51:05;;;;;;;25.00;11.57;;;30.50;99.90;;;;;;4442593;28;658440;-70
2021/07/14 07:53:53;;;;;;;23.17;11.23;;;30.80;99.90;;;;;;4462876;28;658733;-70
2021/07/14 07:56:41;;;;;;;17.88;10.73;;;31.00;99.90;;;;;;4443136;28;660404;-70
2021/07/14 07:59:30;;;;;;;19.92;11.20;;;31.00;99.90;;;;;;4462266;28;658533;-69
2021/07/14 08:02:18;;;;;;;31.30;11.77;;;31.10;99.90;;;;;;4465548;28;659021;-70
2021/07/14 08:05:07;;;;;;;19.40;11.05;;;31.40;99.90;;;;;;4442128;27;660045;-69
2021/07/14 08:07:54;;;;;;;20.67;11.80;;;31.60;99.90;;;;;;4445561;28;658930;-69
2021/07/14 08:10:42;;;;;;;25.67;10.95;;;31.60;99.90;;;;;;4458759;28;659397;-69
2021/07/14 08:13:29;;;;;;;20.60;11.10;;;31.70;99.90;;;;;;4446232;28;658785;-70
2021/07/14 08:16:19;;;;;;;26.55;11.55;;;31.90;99.90;;;;;;4444536;28;659522;-70
2021/07/14 08:19:06;;;;;;;18.90;10.73;;;32.10;99.90;;;;;;4446280;28;660159;-69
2021/07/14 08:21:54;;;;;;;20.05;10.80;;;32.20;99.90;;;;;;4456355;28;658738;-69
2021/07/14 08:24:42;;;;;;;24.17;11.02;;;32.50;99.90;;;;;;4463597;28;659456;-69
2021/07/14 08:27:29;;;;;;;18.50;10.35;;;32.60;99.90;;;;;;4446069;28;658345;-69
2021/07/14 08:30:17;;;;;;;21.17;9.85;;;32.80;99.90;;;;;;4464458;28;660159;-70
2021/07/14 08:33:07;;;;;;;24.20;11.07;;;32.90;99.90;;;;;;4441382;28;657843;-70
2021/07/14 08:35:54;;;;;;;26.20;10.00;;;32.90;99.90;;;;;;4445590;28;658555;-69
2021/07/14 08:38:42;;;;;;;17.85;10.38;;;33.00;99.90;;;;;;4468212;28;660202;-69
2021/07/14 08:41:29;;;;;;;20.38;10.60;;;32.90;99.90;;;;;;4442780;28;659035;-69
2021/07/14 08:44:18;;;;;;;22.40;10.32;;;32.90;99.90;;;;;;4464896;28;659031;-69
2021/07/14 08:47:06;;;;;;;24.23;10.20;;;33.10;99.90;;;;;;4445709;28;658945;-69
2021/07/14 08:49:56;;;;;;;17.77;9.48;;;33.20;99.90;;;;;;4438962;28;659099;-69
2021/07/14 08:52:45;;;;;;;20.90;10.02;;;33.50;99.90;;;;;;4463076;28;658162;-69
2021/07/14 08:55:33;;;;;;;21.40;9.90;;;33.90;99.90;;;;;;4441814;28;658918;-69
2021/07/14 08:58:22;;;;;;;22.48;10.63;;;34.00;99.90;;;;;;4442736;28;659093;-69
2021/07/14 09:01:09;;;;;;;18.77;10.02;;;33.80;99.90;;;;;;4444950;28;658537;-69
2021/07/14 09:03:57;;;;;;;19.42;9.95;;;33.70;99.90;;;;;;4464085;28;659370;-69
2021/07/14 09:06:46;;;;;;;16.27;10.13;;;33.70;99.90;;;;;;4440091;28;658002;-69
2021/07/14 09:09:35;;;;;;;19.00;10.73;;;33.50;99.90;;;;;;4446481;28;658634;-69
2021/07/14 09:12:30;;;;;;;26.15;10.68;;;33.30;99.90;;;;;;4460137;28;659281;-69
2021/07/14 09:15:21;;;;;;;22.98;11.07;;;33.00;99.90;;;;;;4441401;28;658784;-69
2021/07/14 09:18:09;;;;;;;30.52;9.88;;;32.80;99.90;;;;;;4461029;28;658859;-69
2021/07/14 09:20:57;;;;;;;23.90;10.90;;;32.90;99.90;;;;;;4464864;28;658869;-69
2021/07/14 09:23:46;;;;;;;20.38;10.50;;;32.90;99.90;;;;;;4445284;28;658939;-69
2021/07/14 09:26:34;;;;;;;17.13;10.50;;;33.20;99.90;;;;;;4448245;28;658519;-69
2021/07/14 09:29:22;;;;;;;28.75;11.48;;;33.30;99.90;;;;;;4466406;28;660195;-70
2021/07/14 09:32:10;;;;;;;21.88;11.13;;;33.50;99.90;;;;;;4445495;28;658855;-69
2021/07/14 09:34:57;;;;;;;17.20;11.00;;;33.40;99.90;;;;;;4457293;28;659613;-70
2021/07/14 09:37:47;;;;;;;18.88;10.77;;;33.30;99.90;;;;;;4439450;28;659143;-70
2021/07/14 09:40:37;;;;;;;22.30;11.35;;;33.10;99.90;;;;;;4444981;28;659670;-70
2021/07/14 09:43:25;;;;;;;21.52;11.48;;;32.90;99.90;;;;;;4441149;28;658538;-69
2021/07/14 09:46:13;;;;;;;24.05;11.55;;;33.00;99.90;;;;;;4464715;28;658638;-69
2021/07/14 09:49:01;;;;;;;18.55;12.10;;;33.10;99.90;;;;;;4440623;28;660079;-69
2021/07/14 09:51:49;;;;;;;23.90;12.27;;;33.00;99.90;;;;;;4459673;28;660232;-68
2021/07/14 09:54:37;;;;;;;21.02;11.88;;;33.30;99.90;;;;;;4459731;28;659360;-69
2021/07/14 09:57:26;;;;;;;20.55;11.63;;;34.10;99.90;;;;;;4445368;28;658587;-70
2021/07/14 10:00:25;;;;;;;20.83;12.27;;;34.30;99.90;;;;;;4447655;28;658714;-69
2021/07/14 10:03:18;;;;;;;21.92;11.68;;;34.50;99.90;;;;;;4444104;28;658556;-70
2021/07/14 10:06:08;;;;;;;20.95;11.88;;;34.50;99.90;;;;;;4412859;28;660220;-70
2021/07/14 10:08:56;;;;;;;20.02;11.80;;;34.70;99.90;;;;;;4435141;28;658905;-70
2021/07/14 10:11:44;;;;;;;22.77;12.73;;;35.10;99.90;;;;;;4444959;28;658833;-69
2021/07/14 10:14:33;;;;;;;18.70;11.35;;;35.30;99.90;;;;;;4466388;28;658832;-70
2021/07/14 10:17:37;;;;;;;22.80;12.10;;;35.20;99.90;;;;;;4440804;28;659478;-70
2021/07/14 10:20:30;;;;;;;16.47;10.70;;;35.00;99.90;;;;;;4420704;28;658666;-69
2021/07/14 10:23:18;;;;;;;25.52;10.27;;;34.90;99.90;;;;;;4440284;28;658940;-70
2021/07/14 10:26:06;;;;;;;18.13;10.40;;;34.70;99.90;;;;;;4443261;28;659362;-71
2021/07/14 10:28:54;;;;;;;16.75;10.35;;;34.80;99.90;;;;;;4458883;28;658987;-72
2021/07/14 10:31:43;;;;;;;12.63;9.65;;;34.70;98.50;;;;;;4441448;28;659867;-71
2021/07/14 10:34:31;;;;;;;14.70;10.38;;;34.90;98.50;;;;;;4449506;28;658638;-71
2021/07/14 10:37:19;;;;;;;17.42;10.77;;;34.70;99.90;;;;;;4454342;28;658701;-69
2021/07/14 10:40:09;;;;;;;20.50;11.85;;;34.70;99.10;;;;;;4470257;28;658841;-72
2021/07/14 10:42:57;;;;;;;25.05;13.48;;;34.70;99.90;;;;;;4447979;28;659017;-72
2021/07/14 10:45:47;;;;;;;20.92;11.55;;;34.60;99.90;;;;;;4446521;28;658606;-75
2021/07/14 10:48:36;;;;;;;18.52;11.10;;;33.70;99.90;;;;;;4447252;28;658829;-73
2021/07/14 10:51:25;;;;;;;21.17;11.75;;;33.10;99.90;;;;;;4449358;28;659507;-72
2021/07/14 10:54:13;;;;;;;26.80;11.80;;;32.50;99.90;;;;;;4465420;28;659323;-70
2021/07/14 10:57:01;;;;;;;23.35;12.32;;;31.90;99.90;;;;;;4446701;28;658643;-71
2021/07/14 10:59:50;;;;;;;20.70;12.40;;;31.70;99.90;;;;;;4448089;28;658592;-71
2021/07/14 11:02:41;;;;;;;24.38;12.00;;;32.10;99.90;;;;;;4465997;28;659572;-72
2021/07/14 11:05:35;;;;;;;27.50;13.00;;;32.50;99.90;;;;;;4437133;28;658663;-68
2021/07/14 11:08:38;;;;;;;21.40;13.48;;;32.60;99.90;;;;;;4443401;28;659196;-71
2021/07/14 11:11:25;;;;;;;22.77;13.23;;;32.70;99.90;;;;;;4419465;28;659535;-71
2021/07/14 11:14:15;;;;;;;20.95;13.60;;;32.60;99.90;;;;;;4467006;28;658900;-71
2021/07/14 11:17:03;;;;;;;18.80;12.88;;;32.50;99.90;;;;;;4444300;28;659178;-73
2021/07/14 11:19:52;;;;;;;22.95;13.18;;;32.60;99.90;;;;;;4444510;28;659924;-74
2021/07/14 11:22:41;;;;;;;28.48;14.57;;;32.70;99.90;;;;;;4448179;28;658716;-69
2021/07/14 11:25:30;;;;;;;23.35;13.63;;;33.00;99.90;;;;;;4448347;28;658968;-71
2021/07/14 11:28:18;;;;;;;22.67;15.30;;;33.10;99.90;;;;;;4467669;28;658781;-71
2021/07/14 11:31:10;;;;;;;22.20;14.50;;;33.00;99.90;;;;;;4439220;28;659927;-70
2021/07/14 11:33:58;;;;;;;27.35;14.48;;;32.90;99.90;;;;;;4426983;28;658368;-72
2021/07/14 11:36:45;;;;;;;22.77;13.95;;;33.30;99.90;;;;;;4440485;28;658967;-70
2021/07/14 11:39:34;;;;;;;19.88;14.65;;;33.50;99.90;;;;;;4465930;28;658742;-71
2021/07/14 11:42:22;;;;;;;27.30;15.25;;;33.50;99.90;;;;;;4441478;28;659808;-69
2021/07/14 11:45:11;;;;;;;22.33;14.65;;;33.70;99.90;;;;;;4428861;28;658849;-72
2021/07/14 11:48:02;;;;;;;23.30;14.75;;;33.50;99.90;;;;;;4447883;28;658696;-70
2021/07/14 11:50:51;;;;;;;22.00;14.20;;;33.70;99.90;;;;;;4406185;28;659039;-71
2021/07/14 11:53:44;;;;;;;22.15;14.10;;;34.10;99.90;;;;;;4429149;28;658519;-69
2021/07/14 11:56:42;;;;;;;20.27;13.37;;;34.50;99.90;;;;;;4427477;28;659564;-71
2021/07/14 11:59:30;;;;;;;22.87;14.17;;;34.60;99.90;;;;;;4404965;28;658464;-70
2021/07/14 12:02:22;;;;;;;21.77;13.07;;;34.80;99.90;;;;;;4447408;28;659325;-71
2021/07/14 12:05:11;;;;;;;18.67;13.52;;;35.10;99.90;;;;;;4405599;28;659336;-71
2021/07/14 12:08:09;;;;;;;25.02;14.55;;;35.30;99.90;;;;;;4447229;28;659294;-71
2021/07/14 12:10:57;;;;;;;24.30;13.80;;;35.70;99.90;;;;;;4402077;28;659255;-71
2021/07/14 12:13:48;;;;;;;28.52;14.13;;;35.60;97.30;;;;;;4429509;28;658547;-70
2021/07/14 12:16:36;;;;;;;27.25;13.18;;;35.80;97.10;;;;;;4425287;28;659542;-71
2021/07/14 12:19:26;;;;;;;18.17;13.07;;;36.20;98.40;;;;;;4447821;28;659024;-69
2021/07/14 12:22:15;;;;;;;22.88;13.38;;;36.40;97.60;;;;;;4440279;28;659142;-70
2021/07/14 12:25:08;;;;;;;20.38;13.00;;;36.50;96.10;;;;;;4447601;28;658971;-72
2021/07/14 12:27:56;;;;;;;19.60;12.93;;;37.20;97.40;;;;;;4401352;28;659200;-71
2021/07/14 12:30:47;;;;;;;20.73;13.20;;;37.20;92.10;;;;;;4445935;28;658678;-69
2021/07/14 12:33:35;;;;;;;19.88;12.70;;;37.20;91.90;;;;;;4442025;28;658858;-71
2021/07/14 12:36:22;;;;;;;22.13;13.18;;;37.10;90.70;;;;;;4453711;28;659984;-71
2021/07/14 12:39:10;;;;;;;20.70;13.05;;;37.30;90.40;;;;;;4444590;28;658849;-71
2021/07/14 12:42:00;;;;;;;22.52;12.73;;;37.40;88.80;;;;;;4463128;28;658857;-71
2021/07/14 12:44:49;;;;;;;18.37;12.80;;;37.60;89.70;;;;;;4434349;28;658843;-71
2021/07/14 12:47:41;;;;;;;19.60;12.95;;;37.60;90.50;;;;;;4439842;28;660041;-71
2021/07/14 12:50:29;;;;;;;22.15;12.52;;;38.00;90.30;;;;;;4419862;28;658196;-70
2021/07/14 12:53:17;;;;;;;15.93;12.10;;;38.60;89.20;;;;;;4465816;28;658225;-71
2021/07/14 12:56:05;;;;;;;22.17;12.07;;;38.30;81.60;;;;;;4444406;28;658668;-72
2021/07/14 12:59:00;;;;;;;23.40;12.98;;;37.80;81.20;;;;;;4459106;28;659390;-71
2021/07/14 13:01:48;;;;;;;18.60;12.70;;;37.70;81.10;;;;;;4440288;28;658555;-72
2021/07/14 13:04:37;;;;;;;24.08;13.20;;;37.50;80.40;;;;;;4439451;28;658927;-71
2021/07/14 13:07:26;;;;;;;17.02;12.90;;;37.30;83.60;;;;;;4436829;28;659171;-71
2021/07/14 13:10:13;;;;;;;17.17;12.20;;;37.30;88.80;;;;;;4463582;28;659015;-72
2021/07/14 13:13:01;;;;;;;20.70;12.90;;;37.20;87.20;;;;;;4441767;28;659874;-72
2021/07/14 13:15:52;;;;;;;20.17;12.63;;;36.90;84.60;;;;;;4463343;28;659142;-70
2021/07/14 13:18:41;;;;;;;19.13;12.50;;;37.10;86.20;;;;;;4396980;28;1282830;-71
2021/07/14 13:21:33;;;;;;;19.38;11.85;;;37.30;83.80;;;;;;4457519;28;659525;-70
2021/07/14 13:24:21;;;;;;;15.73;11.35;;;37.30;83.70;;;;;;4435473;28;658883;-72
2021/07/14 13:27:08;;;;;;;16.95;11.65;;;37.10;78.20;;;;;;4464590;28;658571;-71
2021/07/14 13:29:56;;;;;;;21.42;11.43;;;37.50;83.30;;;;;;4445402;28;659130;-71
2021/07/14 13:33:01;;;;;;;18.13;11.13;;;37.70;79.80;;;;;;4455241;28;660033;-69
2021/07/14 13:35:49;;;;;;;18.97;10.80;;;37.70;76.30;;;;;;4441593;28;658649;-71
2021/07/14 13:38:40;;;;;;;20.55;10.68;;;37.90;75.30;;;;;;4441037;28;658951;-71
2021/07/14 13:41:32;;;;;;;25.23;11.38;;;38.20;74.30;;;;;;4441291;28;658557;-71
2021/07/14 13:44:26;;;;;;;24.43;10.93;;;38.40;73.60;;;;;;4421996;28;658361;-70
2021/07/14 13:47:19;;;;;;;16.77;11.68;;;38.40;71.80;;;;;;4432309;28;658566;-70
2021/07/14 13:50:08;;;;;;;17.27;11.20;;;38.30;72.90;;;;;;4440401;28;658999;-72
2021/07/14 13:53:02;;;;;;;16.33;12.30;;;37.90;71.50;;;;;;4440388;28;658850;-71
2021/07/14 13:56:02;;;;;;;16.45;12.23;;;37.60;72.90;;;;;;4444565;28;658706;-71
2021/07/14 13:58:50;;;;;;;18.95;11.85;;;37.60;72.80;;;;;;4438905;28;658636;-70
2021/07/14 14:01:37;;;;;;;21.25;12.75;;;37.50;74.20;;;;;;4466962;28;658465;-71
2021/07/14 14:04:25;;;;;;;20.13;13.35;;;37.40;77.20;;;;;;4439457;27;658898;-71
2021/07/14 14:07:21;;;;;;;21.63;12.98;;;37.10;77.50;;;;;;4463443;28;658942;-71
2021/07/14 14:10:13;;;;;;;25.75;12.85;;;36.70;81.20;;;;;;4425524;28;658993;-69
2021/07/14 14:13:06;;;;;;;23.50;13.38;;;36.90;78.70;;;;;;4445072;28;659474;-71